Black Canyon City, Arizona
Current Conditions -  °F | °C
As of 4:53 AM on Monday 26 Jan 2015 (Local Time) from KDVT Reporting Station
Clear Clear  
Wind Chill: 57°   Ceiling: Unl
Heat Index: 57°   Visibility: 10mi
Dew Point: 26°   Wind: 7mph
Humidity: 30%   Direction: 10°N
Pressure: 30.08"   Gusts: NA
Location:  34.06°N, 112.11°W
Report Text: KDVT 261153Z AUTO 01006KT 10SM CLR 14/M03 A3008 RMK AO2 SLP171 T01391033 10172 20117 56008
Loading
Personal Weather Stations






























Interactive Weather Map New forecast layout! Learn more

10-Day Weather Forecast

Advertisements
Track Severe Weather on mobile